Time;durP1;ratioP1;P1;durP2;ratioP2;P2;SDS_P1;SDS_P2;PMS_P1;PMS_P2;Temp;Humidity;BMP_temperature;BMP_pressure;BME280_temperature;BME280_humidity;BME280_pressure;Samples;Min_cycle;Max_cycle;Signal;HPM_P1;HPM_P2
2023/02/04 00:00:54;;;;;;;28.00;21.75;;;;;;;;;;10068616;28;20081;-64
2023/02/04 00:05:48;;;;;;;41.90;26.15;;;;;;;;;;10067512;28;20056;-63
2023/02/04 00:10:42;;;;;;;35.40;23.33;;;;;;;;;;10068365;28;20096;-63
2023/02/04 00:15:35;;;;;;;34.72;24.55;;;;;;;;;;10067517;28;20513;-64
2023/02/04 00:20:29;;;;;;;36.78;26.88;;;;;;;;;;10067391;28;20068;-64
2023/02/04 00:25:23;;;;;;;34.95;27.70;;;;;;;;;;10067011;28;20571;-64
2023/02/04 00:30:17;;;;;;;36.53;28.15;;;;;;;;;;10067363;28;20091;-64
2023/02/04 00:35:10;;;;;;;37.35;27.05;;;;;;;;;;10066785;28;20095;-64
2023/02/04 00:40:04;;;;;;;37.05;27.92;;;;;;;;;;10067301;28;20136;-64
2023/02/04 00:44:57;;;;;;;41.33;28.27;;;;;;;;;;10066681;28;20100;-64
2023/02/04 00:49:50;;;;;;;35.63;28.05;;;;;;;;;;10066406;28;20049;-64
2023/02/04 00:54:44;;;;;;;36.00;26.30;;;;;;;;;;10064319;28;20056;-64
2023/02/04 00:59:37;;;;;;;37.08;28.33;;;;;;;;;;10065884;28;20046;-65
2023/02/04 01:04:30;;;;;;;41.67;29.17;;;;;;;;;;10063614;28;20525;-64
2023/02/04 01:09:23;;;;;;;39.80;29.55;;;;;;;;;;10065462;28;20147;-65
2023/02/04 01:14:17;;;;;;;37.47;28.60;;;;;;;;;;10065376;28;20056;-64
2023/02/04 01:19:11;;;;;;;40.05;28.88;;;;;;;;;;10065706;28;20571;-64
2023/02/04 01:24:04;;;;;;;46.08;30.05;;;;;;;;;;10060311;28;20056;-64
2023/02/04 01:29:18;;;;;;;42.13;31.38;;;;;;;;;;10064993;28;20088;-64
2023/02/04 01:34:12;;;;;;;40.65;32.22;;;;;;;;;;10063215;28;20049;-64
2023/02/04 01:39:06;;;;;;;48.88;31.83;;;;;;;;;;10065286;28;20084;-64
2023/02/04 01:43:59;;;;;;;39.50;30.90;;;;;;;;;;10064605;28;20132;-64
2023/02/04 01:48:53;;;;;;;37.65;29.80;;;;;;;;;;10063985;28;20060;-64
2023/02/04 01:53:46;;;;;;;41.67;30.42;;;;;;;;;;10064151;28;20453;-64
2023/02/04 01:58:39;;;;;;;39.00;29.83;;;;;;;;;;10072647;28;20106;-64
2023/02/04 02:03:32;;;;;;;44.40;30.33;;;;;;;;;;10063483;28;20057;-64
2023/02/04 02:08:24;;;;;;;40.78;29.65;;;;;;;;;;10079159;28;20045;-64
2023/02/04 02:13:18;;;;;;;38.22;30.23;;;;;;;;;;10062582;28;20132;-64
2023/02/04 02:18:11;;;;;;;41.83;32.13;;;;;;;;;;10065465;28;20053;-64
2023/02/04 02:23:36;;;;;;;48.55;30.83;;;;;;;;;;10070666;28;20087;-65
2023/02/04 02:28:30;;;;;;;35.03;27.02;;;;;;;;;;10068793;28;20053;-65
2023/02/04 02:33:25;;;;;;;38.08;29.98;;;;;;;;;;10071328;28;20064;-65
2023/02/04 02:38:18;;;;;;;41.33;30.23;;;;;;;;;;10070212;28;20068;-64
2023/02/04 02:43:16;;;;;;;36.20;28.23;;;;;;;;;;10053296;28;20501;-64
2023/02/04 02:48:10;;;;;;;39.35;28.35;;;;;;;;;;10069048;28;20053;-64
2023/02/04 02:53:03;;;;;;;35.38;27.90;;;;;;;;;;10070998;28;20045;-64
2023/02/04 02:57:56;;;;;;;35.47;26.48;;;;;;;;;;10052765;28;20064;-64
2023/02/04 03:03:13;;;;;;;36.17;28.75;;;;;;;;;;10069046;28;20468;-64
2023/02/04 03:08:07;;;;;;;35.53;26.45;;;;;;;;;;10065324;28;20045;-64
2023/02/04 03:13:00;;;;;;;34.40;26.23;;;;;;;;;;10059139;28;20057;-64
2023/02/04 03:17:55;;;;;;;40.13;27.27;;;;;;;;;;10068555;28;20050;-64
2023/02/04 03:22:49;;;;;;;35.85;26.80;;;;;;;;;;10052163;28;20062;-64
2023/02/04 03:27:43;;;;;;;36.25;28.00;;;;;;;;;;10068657;28;20612;-64
2023/02/04 03:32:37;;;;;;;37.03;26.63;;;;;;;;;;10068173;28;20124;-64
2023/02/04 03:37:30;;;;;;;34.63;25.98;;;;;;;;;;10068894;28;20060;-64
2023/02/04 03:42:24;;;;;;;35.50;25.67;;;;;;;;;;10060728;28;20121;-64
2023/02/04 03:47:18;;;;;;;31.65;26.58;;;;;;;;;;10066403;28;20107;-64
2023/02/04 03:52:11;;;;;;;35.60;28.00;;;;;;;;;;10068238;28;20506;-64
2023/02/04 03:57:05;;;;;;;34.28;27.30;;;;;;;;;;10068604;28;20494;-64
2023/02/04 04:01:58;;;;;;;39.00;29.17;;;;;;;;;;10068499;28;20045;-64
2023/02/04 04:06:52;;;;;;;44.10;29.70;;;;;;;;;;10067274;28;20593;-64
2023/02/04 04:11:45;;;;;;;41.20;30.23;;;;;;;;;;10068015;28;20037;-64
2023/02/04 04:16:40;;;;;;;35.22;26.23;;;;;;;;;;10068121;28;20095;-64
2023/02/04 04:21:33;;;;;;;36.78;28.23;;;;;;;;;;10067343;28;20053;-64
2023/02/04 04:26:26;;;;;;;37.03;27.00;;;;;;;;;;10067418;28;20053;-64
2023/02/04 04:31:21;;;;;;;37.67;29.55;;;;;;;;;;10066724;28;20042;-64
2023/02/04 04:36:15;;;;;;;40.05;25.63;;;;;;;;;;10067117;28;20049;-64
2023/02/04 04:41:08;;;;;;;33.53;26.55;;;;;;;;;;10066224;28;20057;-65
2023/02/04 04:46:02;;;;;;;34.72;27.10;;;;;;;;;;10066295;28;20065;-64
2023/02/04 04:50:55;;;;;;;36.67;26.38;;;;;;;;;;10066234;28;20595;-64
2023/02/04 04:55:48;;;;;;;39.28;27.50;;;;;;;;;;10065871;28;20487;-65
2023/02/04 05:00:41;;;;;;;42.50;27.95;;;;;;;;;;10066148;28;20132;-65
2023/02/04 05:05:38;;;;;;;35.20;26.77;;;;;;;;;;10066008;28;20125;-64
2023/02/04 05:10:31;;;;;;;35.70;26.40;;;;;;;;;;10065342;28;20386;-64
2023/02/04 05:15:26;;;;;;;34.70;24.60;;;;;;;;;;10066038;28;20151;-64
2023/02/04 05:20:25;;;;;;;48.15;25.02;;;;;;;;;;10062578;28;20049;-67
2023/02/04 05:25:19;;;;;;;32.90;25.88;;;;;;;;;;10048089;28;20046;-66
2023/02/04 05:30:14;;;;;;;34.78;28.02;;;;;;;;;;10049885;28;20073;-65
2023/02/04 05:35:09;;;;;;;37.90;28.98;;;;;;;;;;10050355;28;20072;-65
2023/02/04 05:40:04;;;;;;;37.45;27.85;;;;;;;;;;10058091;28;20627;-65
2023/02/04 05:44:57;;;;;;;30.67;26.02;;;;;;;;;;10058587;28;20149;-65
2023/02/04 05:49:51;;;;;;;31.13;24.48;;;;;;;;;;10061560;28;20042;-65
2023/02/04 05:54:45;;;;;;;29.23;23.85;;;;;;;;;;10065953;28;20045;-66
2023/02/04 05:59:37;;;;;;;31.83;22.83;;;;;;;;;;10059249;28;20525;-63
2023/02/04 06:04:30;;;;;;;25.52;21.23;;;;;;;;;;10054104;28;20069;-66
2023/02/04 06:09:23;;;;;;;28.67;22.13;;;;;;;;;;10059441;28;20060;-65
2023/02/04 06:14:18;;;;;;;35.10;25.77;;;;;;;;;;10063231;28;20042;-64
2023/02/04 06:19:12;;;;;;;28.90;23.05;;;;;;;;;;10059884;28;20060;-65
2023/02/04 06:24:10;;;;;;;29.75;24.30;;;;;;;;;;10061103;28;20077;-64
2023/02/04 06:29:03;;;;;;;30.65;22.20;;;;;;;;;;10059687;28;20471;-65
2023/02/04 06:33:56;;;;;;;31.77;24.33;;;;;;;;;;10052852;28;20053;-63
2023/02/04 06:38:51;;;;;;;33.78;25.92;;;;;;;;;;10056941;28;20821;-64
2023/02/04 06:43:45;;;;;;;32.22;24.42;;;;;;;;;;10057305;28;20069;-63
2023/02/04 06:48:39;;;;;;;34.08;24.85;;;;;;;;;;10066237;28;20049;-64
2023/02/04 06:53:33;;;;;;;33.33;23.95;;;;;;;;;;10064596;28;20501;-63
2023/02/04 06:58:26;;;;;;;32.13;24.33;;;;;;;;;;10064612;28;20132;-63
2023/02/04 07:03:19;;;;;;;36.38;25.48;;;;;;;;;;10055409;28;20080;-63
2023/02/04 07:08:12;;;;;;;32.03;24.13;;;;;;;;;;10059362;28;20078;-63
2023/02/04 07:13:04;;;;;;;33.25;23.40;;;;;;;;;;10059496;28;20469;-64
2023/02/04 07:17:59;;;;;;;35.53;22.80;;;;;;;;;;10063941;28;20048;-63
2023/02/04 07:22:52;;;;;;;38.53;26.63;;;;;;;;;;10056275;28;20123;-64
2023/02/04 07:27:46;;;;;;;40.22;23.90;;;;;;;;;;10059887;28;20449;-63
2023/02/04 07:32:40;;;;;;;35.60;24.50;;;;;;;;;;10049982;28;20069;-63
2023/02/04 07:37:34;;;;;;;30.52;22.50;;;;;;;;;;10062377;28;20037;-63
2023/02/04 07:42:28;;;;;;;28.33;23.60;;;;;;;;;;10056766;28;20098;-62
2023/02/04 07:47:30;;;;;;;25.25;21.60;;;;;;;;;;10061160;28;20046;-65
2023/02/04 07:52:25;;;;;;;22.92;19.00;;;;;;;;;;10054518;28;20157;-65
2023/02/04 07:57:19;;;;;;;29.05;20.48;;;;;;;;;;10053086;28;20049;-65
2023/02/04 08:02:13;;;;;;;27.30;20.27;;;;;;;;;;10058978;28;20053;-64
2023/02/04 08:07:06;;;;;;;29.05;22.38;;;;;;;;;;10055242;28;20513;-64
2023/02/04 08:12:00;;;;;;;30.27;22.05;;;;;;;;;;10054114;28;20136;-63
2023/02/04 08:16:53;;;;;;;25.65;22.60;;;;;;;;;;10049844;28;20096;-63
2023/02/04 08:21:47;;;;;;;25.80;19.15;;;;;;;;;;10060357;28;20037;-64
2023/02/04 08:26:41;;;;;;;23.98;18.23;;;;;;;;;;10057699;28;20072;-64
2023/02/04 08:31:36;;;;;;;19.90;17.42;;;;;;;;;;10057225;28;20050;-62
2023/02/04 08:36:29;;;;;;;22.33;17.33;;;;;;;;;;10046360;28;20087;-65
2023/02/04 08:41:23;;;;;;;33.65;23.38;;;;;;;;;;10055962;28;20050;-63
2023/02/04 08:46:16;;;;;;;23.50;17.25;;;;;;;;;;10048428;28;20068;-64
2023/02/04 08:51:11;;;;;;;24.08;17.60;;;;;;;;;;10045277;28;20506;-62
2023/02/04 08:56:07;;;;;;;25.55;16.98;;;;;;;;;;10039301;28;20145;-62
2023/02/04 09:01:01;;;;;;;16.63;13.05;;;;;;;;;;10038001;28;20399;-62
2023/02/04 09:05:55;;;;;;;17.33;13.13;;;;;;;;;;10052795;28;20057;-62
2023/02/04 09:10:48;;;;;;;16.30;12.45;;;;;;;;;;10051739;28;20046;-62
2023/02/04 09:15:41;;;;;;;22.27;14.88;;;;;;;;;;10065484;28;20494;-62
2023/02/04 09:20:35;;;;;;;21.45;16.75;;;;;;;;;;10065482;28;20049;-63
2023/02/04 09:25:29;;;;;;;25.50;16.00;;;;;;;;;;10064907;28;20485;-63
2023/02/04 09:30:22;;;;;;;16.80;13.63;;;;;;;;;;10065366;28;20398;-63
2023/02/04 09:35:15;;;;;;;18.40;13.60;;;;;;;;;;10064986;28;20103;-63
2023/02/04 09:40:15;;;;;;;18.40;13.90;;;;;;;;;;10063429;28;20120;-63
2023/02/04 09:45:18;;;;;;;14.60;13.00;;;;;;;;;;10061632;28;20624;-63
2023/02/04 09:50:18;;;;;;;20.13;13.15;;;;;;;;;;10058795;28;20076;-63
2023/02/04 09:55:17;;;;;;;14.80;11.15;;;;;;;;;;10054706;28;20056;-63
2023/02/04 10:00:18;;;;;;;17.55;12.52;;;;;;;;;;10056937;28;20077;-63
2023/02/04 10:05:17;;;;;;;18.20;12.52;;;;;;;;;;10065104;28;20057;-63
2023/02/04 10:10:26;;;;;;;23.75;18.23;;;;;;;;;;10063956;28;20046;-63
2023/02/04 10:15:19;;;;;;;26.55;15.02;;;;;;;;;;10064250;28;20520;-63
2023/02/04 10:20:19;;;;;;;17.92;14.30;;;;;;;;;;10063668;28;20103;-63
2023/02/04 10:25:19;;;;;;;20.48;14.98;;;;;;;;;;10064676;28;20071;-63
2023/02/04 10:30:38;;;;;;;18.50;15.00;;;;;;;;;;10061654;28;20132;-63
2023/02/04 10:35:31;;;;;;;17.83;15.25;;;;;;;;;;10063836;28;20049;-63
2023/02/04 10:40:34;;;;;;;18.17;13.07;;;;;;;;;;10065719;28;20048;-64
2023/02/04 10:45:29;;;;;;;16.50;13.75;;;;;;;;;;10068224;28;20053;-64
2023/02/04 10:50:25;;;;;;;19.02;15.23;;;;;;;;;;10068089;28;20077;-64
2023/02/04 10:55:22;;;;;;;17.60;15.70;;;;;;;;;;10071172;28;20053;-64
2023/02/04 11:00:24;;;;;;;18.20;16.23;;;;;;;;;;10061477;28;20049;-64
2023/02/04 11:05:20;;;;;;;16.80;14.95;;;;;;;;;;10070604;28;20057;-64
2023/02/04 11:10:15;;;;;;;18.67;15.65;;;;;;;;;;10069791;28;20053;-64
2023/02/04 11:15:40;;;;;;;23.20;15.60;;;;;;;;;;10069934;28;20080;-64
2023/02/04 11:20:38;;;;;;;22.70;16.77;;;;;;;;;;10068774;28;20047;-64
2023/02/04 11:25:35;;;;;;;28.77;16.75;;;;;;;;;;10061354;28;20060;-64
2023/02/04 11:30:34;;;;;;;23.38;15.70;;;;;;;;;;10069269;28;20057;-64
2023/02/04 11:35:28;;;;;;;21.70;17.00;;;;;;;;;;10069983;28;20054;-64
2023/02/04 11:40:26;;;;;;;22.90;17.92;;;;;;;;;;10059812;28;20087;-64
2023/02/04 11:45:23;;;;;;;20.48;16.65;;;;;;;;;;10068321;28;20069;-64
2023/02/04 11:50:29;;;;;;;20.88;17.10;;;;;;;;;;10062887;28;20508;-61
2023/02/04 11:55:23;;;;;;;21.13;17.83;;;;;;;;;;10069276;28;20053;-61
2023/02/04 12:00:19;;;;;;;19.90;17.60;;;;;;;;;;10061470;28;20050;-61
2023/02/04 12:05:34;;;;;;;21.90;17.17;;;;;;;;;;10068557;28;20046;-61
2023/02/04 12:10:33;;;;;;;17.40;15.38;;;;;;;;;;10065902;28;20103;-61
2023/02/04 12:15:34;;;;;;;15.70;14.05;;;;;;;;;;10068256;28;20052;-61
2023/02/04 12:20:28;;;;;;;20.30;13.20;;;;;;;;;;10067681;28;20041;-61
2023/02/04 12:25:21;;;;;;;19.23;13.52;;;;;;;;;;10067638;28;20084;-61
2023/02/04 12:30:17;;;;;;;14.90;12.63;;;;;;;;;;10065187;28;20053;-61
2023/02/04 12:35:10;;;;;;;14.93;11.82;;;;;;;;;;10067151;28;20045;-61
2023/02/04 12:40:04;;;;;;;16.45;12.18;;;;;;;;;;10066855;28;20264;-61
2023/02/04 12:44:57;;;;;;;14.88;11.35;;;;;;;;;;10067007;28;20521;-61
2023/02/04 12:49:51;;;;;;;12.68;10.52;;;;;;;;;;10066641;28;20461;-61
2023/02/04 12:54:45;;;;;;;14.93;11.02;;;;;;;;;;10064844;28;20128;-61
2023/02/04 12:59:40;;;;;;;13.10;11.13;;;;;;;;;;10062363;28;20133;-61
2023/02/04 13:04:35;;;;;;;16.10;12.63;;;;;;;;;;10061876;28;20075;-60
2023/02/04 13:09:29;;;;;;;14.32;11.95;;;;;;;;;;10064327;28;20041;-61
2023/02/04 13:14:22;;;;;;;15.45;10.73;;;;;;;;;;10063033;28;20152;-60
2023/02/04 13:19:16;;;;;;;19.15;11.60;;;;;;;;;;10064190;28;20103;-60
2023/02/04 13:24:09;;;;;;;13.75;10.80;;;;;;;;;;10063843;28;20088;-62
2023/02/04 13:29:02;;;;;;;13.93;10.13;;;;;;;;;;10065862;28;20052;-61
2023/02/04 13:33:56;;;;;;;14.90;11.02;;;;;;;;;;10064931;28;20053;-61
2023/02/04 13:38:50;;;;;;;13.85;10.38;;;;;;;;;;10064303;28;20053;-60
2023/02/04 13:43:43;;;;;;;11.45;9.15;;;;;;;;;;10064480;28;20045;-59
2023/02/04 13:48:36;;;;;;;13.55;10.23;;;;;;;;;;10063777;28;20057;-60
2023/02/04 13:53:31;;;;;;;14.57;10.88;;;;;;;;;;10063975;28;20116;-61
2023/02/04 13:58:24;;;;;;;12.07;10.02;;;;;;;;;;10045712;28;20048;-60
2023/02/04 14:03:18;;;;;;;14.05;11.40;;;;;;;;;;10040885;28;20406;-62
2023/02/04 14:08:10;;;;;;;12.50;10.50;;;;;;;;;;10043014;28;20042;-61
2023/02/04 14:13:04;;;;;;;15.70;9.75;;;;;;;;;;10045924;28;20049;-61
2023/02/04 14:17:57;;;;;;;13.65;10.52;;;;;;;;;;10048081;28;20054;-61
2023/02/04 14:22:50;;;;;;;11.48;9.27;;;;;;;;;;10048412;28;20041;-61
2023/02/04 14:27:44;;;;;;;18.17;11.02;;;;;;;;;;10047432;28;20045;-61
2023/02/04 14:32:38;;;;;;;14.95;10.80;;;;;;;;;;10045753;28;20046;-61
2023/02/04 14:37:33;;;;;;;14.82;12.10;;;;;;;;;;10045485;28;20064;-61
2023/02/04 14:42:27;;;;;;;16.92;10.82;;;;;;;;;;10069924;28;20045;-61
2023/02/04 14:47:20;;;;;;;16.45;10.57;;;;;;;;;;10070873;28;20401;-61
2023/02/04 14:52:15;;;;;;;15.23;11.13;;;;;;;;;;10071026;28;20057;-61
2023/02/04 14:57:10;;;;;;;13.20;10.60;;;;;;;;;;10067722;28;20096;-62
2023/02/04 15:02:04;;;;;;;19.00;11.40;;;;;;;;;;10062253;28;20053;-61
2023/02/04 15:06:58;;;;;;;22.75;11.77;;;;;;;;;;10066626;28;20054;-62
2023/02/04 15:11:51;;;;;;;15.65;11.98;;;;;;;;;;10064093;28;20052;-61
2023/02/04 15:16:47;;;;;;;14.88;11.63;;;;;;;;;;10066645;28;20387;-61
2023/02/04 15:21:42;;;;;;;14.07;10.73;;;;;;;;;;10065867;28;20096;-63
2023/02/04 15:26:35;;;;;;;18.38;11.15;;;;;;;;;;10063550;28;20037;-62
2023/02/04 15:31:29;;;;;;;15.10;10.88;;;;;;;;;;10067909;28;20046;-61
2023/02/04 15:36:23;;;;;;;16.10;11.18;;;;;;;;;;10069300;28;20506;-63
2023/02/04 15:41:17;;;;;;;16.45;11.85;;;;;;;;;;10066931;28;20050;-64
2023/02/04 15:46:11;;;;;;;13.35;11.18;;;;;;;;;;10068017;28;20061;-64
2023/02/04 15:51:05;;;;;;;20.15;13.18;;;;;;;;;;10068219;28;20405;-64
2023/02/04 15:55:59;;;;;;;17.42;13.55;;;;;;;;;;10065553;28;20053;-64
2023/02/04 16:00:53;;;;;;;19.17;13.25;;;;;;;;;;10067173;28;20479;-64
2023/02/04 16:05:46;;;;;;;18.80;13.55;;;;;;;;;;10067880;28;20042;-64
2023/02/04 16:10:39;;;;;;;17.40;13.75;;;;;;;;;;10060980;28;20830;-64
2023/02/04 16:15:32;;;;;;;23.33;14.82;;;;;;;;;;10061109;28;20385;-64
2023/02/04 16:20:26;;;;;;;25.60;14.82;;;;;;;;;;10053302;28;20042;-64
2023/02/04 16:25:21;;;;;;;32.70;16.20;;;;;;;;;;10061148;28;20049;-64
2023/02/04 16:30:16;;;;;;;71.68;50.20;;;;;;;;;;10056848;28;20565;-63
2023/02/04 16:35:10;;;;;;;79.82;55.67;;;;;;;;;;10049526;28;20037;-63
2023/02/04 16:40:05;;;;;;;92.97;58.88;;;;;;;;;;10058240;28;20041;-63
2023/02/04 16:44:58;;;;;;;85.68;57.47;;;;;;;;;;10049272;28;20080;-62
2023/02/04 16:49:54;;;;;;;89.35;63.22;;;;;;;;;;10058561;28;20049;-70
2023/02/04 16:54:47;;;;;;;83.70;58.42;;;;;;;;;;10052104;28;20115;-64
2023/02/04 16:59:40;;;;;;;85.97;59.30;;;;;;;;;;10055854;28;20047;-65
2023/02/04 17:04:33;;;;;;;87.47;58.97;;;;;;;;;;10059839;28;20049;-65
2023/02/04 17:09:27;;;;;;;89.07;64.28;;;;;;;;;;10062091;28;20049;-65
2023/02/04 17:14:21;;;;;;;95.32;64.78;;;;;;;;;;10055105;28;20052;-65
2023/02/04 17:19:16;;;;;;;94.45;64.72;;;;;;;;;;10055739;28;20418;-65
2023/02/04 17:24:10;;;;;;;96.22;66.47;;;;;;;;;;10058296;28;20153;-65
2023/02/04 17:29:33;;;;;;;84.90;63.45;;;;;;;;;;10053278;28;20045;-78
2023/02/04 17:34:31;;;;;;;91.57;66.43;;;;;;;;;;10052769;28;20069;-65
2023/02/04 17:39:41;;;;;;;96.30;68.18;;;;;;;;;;10053810;28;20124;-65
2023/02/04 17:44:34;;;;;;;99.95;68.97;;;;;;;;;;10060638;28;20100;-64
2023/02/04 17:49:29;;;;;;;98.72;70.85;;;;;;;;;;10047050;28;20414;-66
2023/02/04 17:54:26;;;;;;;102.47;69.57;;;;;;;;;;10060805;28;20140;-64
2023/02/04 17:59:20;;;;;;;92.00;64.15;;;;;;;;;;10056844;28;20429;-64
2023/02/04 18:04:14;;;;;;;91.35;64.47;;;;;;;;;;10057240;28;20504;-64
2023/02/04 18:09:14;;;;;;;89.40;62.78;;;;;;;;;;10051411;28;20080;-64
2023/02/04 18:14:21;;;;;;;98.05;64.82;;;;;;;;;;10054700;28;20450;-64
2023/02/04 18:19:15;;;;;;;95.85;68.40;;;;;;;;;;10049968;28;20050;-65
2023/02/04 18:24:07;;;;;;;98.28;64.22;;;;;;;;;;10054712;28;20051;-64
2023/02/04 18:29:00;;;;;;;95.60;69.03;;;;;;;;;;10054733;28;20514;-64
2023/02/04 18:33:53;;;;;;;92.78;67.03;;;;;;;;;;10057018;28;20573;-64
2023/02/04 18:38:46;;;;;;;95.00;64.07;;;;;;;;;;10051481;28;20072;-64
2023/02/04 18:43:39;;;;;;;102.15;69.55;;;;;;;;;;10054840;28;20050;-64
2023/02/04 18:49:05;;;;;;;107.63;70.65;;;;;;;;;;10053096;28;20393;-63
2023/02/04 18:54:03;;;;;;;101.30;70.10;;;;;;;;;;10053316;28;20088;-63
2023/02/04 18:58:57;;;;;;;96.23;66.53;;;;;;;;;;10056815;28;20546;-64
2023/02/04 19:03:54;;;;;;;88.32;64.22;;;;;;;;;;10058950;28;20498;-62
2023/02/04 19:08:48;;;;;;;96.65;65.88;;;;;;;;;;10062926;28;20128;-62
2023/02/04 19:13:41;;;;;;;98.50;68.90;;;;;;;;;;10065306;28;20099;-64
2023/02/04 19:18:38;;;;;;;102.10;69.93;;;;;;;;;;10070552;28;20049;-64
2023/02/04 19:23:36;;;;;;;172.35;110.07;;;;;;;;;;10069712;28;20508;-63
2023/02/04 19:28:50;;;;;;;112.60;75.40;;;;;;;;;;10061687;28;20190;-63
2023/02/04 19:33:44;;;;;;;120.70;77.93;;;;;;;;;;10068093;28;20092;-62
2023/02/04 19:38:44;;;;;;;89.93;65.40;;;;;;;;;;10068920;28;20045;-62
2023/02/04 19:43:37;;;;;;;111.78;74.75;;;;;;;;;;10057867;28;20042;-60
2023/02/04 19:48:37;;;;;;;117.93;80.07;;;;;;;;;;10045268;28;20068;-61
2023/02/04 19:53:31;;;;;;;103.65;75.05;;;;;;;;;;10056233;28;20058;-61
2023/02/04 19:58:28;;;;;;;97.65;70.00;;;;;;;;;;10055902;28;20125;-60
2023/02/04 20:04:03;;;;;;;105.32;65.38;;;;;;;;;;10057260;28;20045;-60
2023/02/04 20:09:03;;;;;;;112.15;73.05;;;;;;;;;;10054872;28;20584;-60
2023/02/04 20:14:13;;;;;;;104.18;75.88;;;;;;;;;;10045043;28;20060;-60
2023/02/04 20:19:32;;;;;;;114.22;78.95;;;;;;;;;;10043500;28;20053;-60
2023/02/04 20:24:29;;;;;;;112.85;78.13;;;;;;;;;;10061881;28;20053;-61
2023/02/04 20:29:23;;;;;;;120.70;82.43;;;;;;;;;;10057521;28;20148;-60
2023/02/04 20:34:36;;;;;;;99.00;71.00;;;;;;;;;;10052466;28;20128;-61
2023/02/04 20:39:38;;;;;;;82.75;62.30;;;;;;;;;;10055291;28;20060;-60
2023/02/04 20:44:38;;;;;;;97.93;67.05;;;;;;;;;;10053494;28;20191;-62
2023/02/04 20:49:38;;;;;;;104.07;73.93;;;;;;;;;;10054907;28;20049;-59
2023/02/04 20:54:33;;;;;;;120.13;77.43;;;;;;;;;;10056640;28;20387;-60
2023/02/04 20:59:29;;;;;;;112.97;77.55;;;;;;;;;;10053593;28;20100;-60
2023/02/04 21:04:29;;;;;;;113.32;79.50;;;;;;;;;;10055317;28;20049;-60
2023/02/04 21:09:28;;;;;;;116.25;76.60;;;;;;;;;;10051355;28;20080;-61
2023/02/04 21:14:22;;;;;;;100.55;69.47;;;;;;;;;;10053714;28;20132;-60
2023/02/04 21:19:16;;;;;;;77.88;58.88;;;;;;;;;;10054495;28;20119;-61
2023/02/04 21:24:10;;;;;;;82.78;60.63;;;;;;;;;;10058749;28;20045;-60
2023/02/04 21:29:04;;;;;;;86.93;62.45;;;;;;;;;;10058272;28;20057;-60
2023/02/04 21:33:58;;;;;;;79.70;61.95;;;;;;;;;;10042729;28;20058;-60
2023/02/04 21:39:12;;;;;;;81.93;58.80;;;;;;;;;;10042830;28;20104;-61
2023/02/04 21:44:05;;;;;;;80.35;58.25;;;;;;;;;;10045259;28;20062;-61
2023/02/04 21:48:58;;;;;;;80.30;62.03;;;;;;;;;;10047785;28;20057;-61
2023/02/04 21:53:51;;;;;;;78.28;59.30;;;;;;;;;;10047067;28;20041;-60
2023/02/04 21:58:45;;;;;;;99.82;67.75;;;;;;;;;;10050314;28;20060;-60
2023/02/04 22:03:39;;;;;;;103.93;70.45;;;;;;;;;;10057144;28;20077;-61
2023/02/04 22:08:32;;;;;;;93.25;68.05;;;;;;;;;;10052105;28;20053;-61
2023/02/04 22:18:39;;;;;;;101.55;70.05;;;;;;;;;;10054051;28;20414;-60
2023/02/04 22:23:32;;;;;;;99.88;67.93;;;;;;;;;;10046625;28;20046;-60
2023/02/04 22:28:25;;;;;;;106.13;71.88;;;;;;;;;;10044427;28;20184;-60
2023/02/04 22:33:18;;;;;;;109.97;70.32;;;;;;;;;;10053640;28;20049;-60
2023/02/04 22:38:12;;;;;;;110.13;75.57;;;;;;;;;;10062054;28;20045;-60
2023/02/04 22:43:05;;;;;;;114.53;78.90;;;;;;;;;;10051822;28;20541;-60
2023/02/04 22:47:57;;;;;;;120.75;79.90;;;;;;;;;;10052854;28;20062;-60
2023/02/04 22:52:52;;;;;;;115.78;80.35;;;;;;;;;;10058829;28;20046;-60
2023/02/04 22:57:46;;;;;;;113.30;77.20;;;;;;;;;;10058694;28;20072;-60
2023/02/04 23:02:39;;;;;;;118.07;80.53;;;;;;;;;;10056013;28;20053;-60
2023/02/04 23:07:31;;;;;;;120.50;79.53;;;;;;;;;;10057523;28;20524;-60
2023/02/04 23:12:25;;;;;;;107.97;74.10;;;;;;;;;;10059130;28;20058;-60
2023/02/04 23:17:18;;;;;;;110.60;77.28;;;;;;;;;;10059728;28;20064;-60
2023/02/04 23:22:13;;;;;;;113.22;78.07;;;;;;;;;;10062411;28;20049;-59
2023/02/04 23:27:10;;;;;;;99.57;70.30;;;;;;;;;;10056056;28;20049;-60
2023/02/04 23:32:04;;;;;;;106.63;72.80;;;;;;;;;;10063514;28;20072;-60
2023/02/04 23:36:58;;;;;;;104.55;74.05;;;;;;;;;;10061966;28;20060;-59
2023/02/04 23:41:52;;;;;;;103.13;73.22;;;;;;;;;;10064114;28;20470;-59
2023/02/04 23:46:46;;;;;;;112.03;72.55;;;;;;;;;;10063260;28;20053;-59
2023/02/04 23:51:40;;;;;;;102.43;68.03;;;;;;;;;;10064490;28;20041;-59
2023/02/04 23:56:34;;;;;;;106.85;71.88;;;;;;;;;;10064438;28;20061;-59
